NCAR-RAP Real-Time Weather Data

Output produced by METARs form (17 October 2018  15:51 UTC)
found at http://weather.rap.ucar.edu/surface/
 
RJCW 170900Z 30016KT 9999 FEW040 SCT050 BKN060 10/02 Q1011
RJCW 170800Z 28016KT 9999 FEW030 SCT040 BKN050 10/02 Q1010
RJCW 170700Z 28015KT 9999 FEW030 SCT040 BKN050 10/03 Q1010
RJCW 170600Z 31015KT 9999 FEW030 BKN050 10/04 Q1010
RJCW 170500Z 30015KT 9999 -SHRA FEW025 SCT040 BKN050 10/04 Q1009
RJCW 170400Z 29015KT 9999 -SHRA FEW020 SCT030 BKN040 10/06 Q1009
RJCW 170300Z 31016KT 9999 FEW020 SCT030 BKN040 10/05 Q1009
RJCW 170200Z 34018KT 9999 FEW020 SCT030 BKN040 10/06 Q1009
RJCW 170100Z 32017KT 9999 -SHRA FEW020 BKN025 BKN040 09/06 Q1009
RJCW 170000Z 31017KT 9999 FEW020 SCT030 BKN040 10/05 Q1009
RJCW 162330Z 30015KT 9999 -SHRA FEW020 SCT030 BKN040 08/05 Q1009
RJCW 160900Z 21009KT 180V310 9999 -SHRA FEW010 SCT020 BKN040 08/05 Q1009
RJCW 160800Z 21005KT 180V260 9999 -SHRA FEW015 SCT030 BKN050 08/06 Q1009
RJCW 160700Z 27015KT 9999 -SHRA FEW015 SCT060 BKN080 09/06 Q1009
RJCW 160600Z 26010KT 9999 -SHRA FEW015 SCT040 BKN060 09/07 Q1010
RJCW 160534Z 26021KT 9999 -SHRA FEW010 SCT020 BKN040 FEW040CB 09/07 Q1010 RMK 1ST010 3CU020 6CU040 1CB040 A2984 CB 20KM SE MOV E P/RR
RJCW 160511Z 27009KT 9999 -TSRA FEW015 SCT040 FEW040CB BKN060 10/05 Q1009 RMK 1ST015 3CU040 1CB040 5CU060 A2981 FBL TS 20KM S MOV E
RJCW 160500Z 28016G30KT 9999 -SHRA FEW015 SCT040 BKN060 10/05 Q1009
RJCW 160430Z 25031KT 9999 SHRA FEW015 SCT020 BKN040 10/05 Q1010 RMK 1ST015 3CU020 6CU040 A2983 4000W
RJCW 160400Z 26010KT 9999 -SHRA FEW020 SCT040 BKN060 13/05 Q1009
RJCW 160300Z 22012KT 9999 FEW020 SCT040 BKN060 14/04 Q1010
RJCW 160200Z 25012KT 9999 FEW030 SCT060 BKN080 12/03 Q1011
RJCW 160100Z 25011KT 9999 FEW030 SCT050 BKN060 14/05 Q1012
RJCW 160000Z 25010KT 9999 FEW030 SCT050 13/04 Q1012
RJCW 152330Z 26012KT 9999 FEW030 SCT050 12/03 Q1012
RJCW 150922Z 17008KT 6000 SHRA FEW020 SCT030 BKN040 11/10 Q1014 RMK 1CU020 3CU030 5CU040 A2995
RJCW 150900Z 21006KT 9999 -TSRA FEW020 SCT030 FEW030CB BKN040 11/09 Q1014
RJCW 150800Z 28004KT 9999 -TSRA FEW020 SCT030 FEW030CB BKN040 11/09 Q1013
RJCW 150734Z 27018KT 9999 TSRA FEW020 BKN030 FEW030CB BKN040 10/08 Q1014 RMK 2CU020 5CU030 1CB030 7CU040 A2995 FBL TS 10KM W-N MOV NE
RJCW 150700Z VRB02KT 9999 TS FEW020 BKN030 FEW030CB BKN040 14/08 Q1013
RJCW 150607Z 10004KT 070V180 9999 TS FEW020 SCT030 FEW030CB BKN040 14/10 Q1013 RMK 2CU020 4CU030 1CB030 6CU040 A2992 FBL TS 10KM N MOV NE
RJCW 150600Z 11004KT 9999 FEW020 SCT030 BKN040 14/10 Q1013
RJCW 150532Z 21006KT 9999 -SHRA FEW020 SCT030 BKN040 13/09 Q1013 RMK 2CU020 3CU030 6CU040 A2993
RJCW 150519Z 24015KT 9999 SHRA FEW020 BKN040 BKN140 13/08 Q1013 RMK 2CU020 5CU040 7AC140 A2994 RI++
RJCW 150500Z 20013KT 9999 FEW020 SCT040 BKN140 15/10 Q1013
RJCW 150400Z 19014KT 9999 FEW020 SCT040 BKN080 16/12 Q1013